Rokkomaru — JD3738 — position and weather

sailwx.info

Track history (hours):
 
Tides and Currents Weather Stations Pressure Air Temp Water Temp Dewpoint Dewpoint Depression Visibility Wind Speed Wind Dir Waves Ship Positions

Rokkomaru

Last reported at 2017-Sep-22 01:56 UTC. Time now 2017-Sep-22 04:32 UTC.
Position N 34°33' E 135°26'.

Length 33 m; draft 4.3 m.

Type: Tug. MMSI: 431005792.

Date/timePositionNaut miles runAvg speedWind from/ knotsBaromVisibWave heightAir tempDewpointWater temp
2017-Sep-22 01:56N 34°33' E 135°26'1 1.9
2017-Sep-22 01:30N 34°33' E 135°25'4 7.2
2017-Sep-22 01:00N 34°34' E 135°20'0 0.5
2017-Sep-22 00:29N 34°34' E 135°20'511.0
2017-Sep-22 00:00N 34°38' E 135°16'4 8.4
2017-Sep-21 23:30N 34°41' E 135°12'0 0.0
2017-Sep-20 23:46N 34°41' E 135°12'1 4.9
2017-Sep-20 23:30N 34°41' E 135°14'2 3.1
2017-Sep-20 23:00N 34°41' E 135°16'1 2.0
2017-Sep-20 22:30N 34°40' E 135°15'1 2.6
2017-Sep-20 22:00N 34°39' E 135°16'2 4.2
2017-Sep-20 21:30N 34°40' E 135°14'0 0.0
2017-Sep-20 21:00N 34°40' E 135°14'0 0.0
2017-Sep-20 20:30N 34°40' E 135°14'0 0.0
2017-Sep-20 20:00N 34°40' E 135°14'0 0.0
2017-Sep-20 19:30N 34°40' E 135°14'0 0.0
2017-Sep-20 19:00N 34°40' E 135°14'0 0.0
2017-Sep-20 18:30N 34°40' E 135°14'0 0.0
2017-Sep-20 18:00N 34°40' E 135°14'0 0.0
2017-Sep-20 17:30N 34°40' E 135°14'0 0.0
2017-Sep-20 17:00N 34°40' E 135°14'1 1.2
2017-Sep-20 16:30N 34°40' E 135°14'0 0.6
2017-Sep-20 16:00N 34°40' E 135°14'0 0.7
2017-Sep-20 15:30N 34°40' E 135°14'0 0.0
2017-Sep-20 15:00N 34°40' E 135°14'0 0.0
2017-Sep-20 14:00N 34°40' E 135°14'0 0.8
2017-Sep-20 13:30N 34°40' E 135°14'0 0.1
2017-Sep-20 13:00N 34°40' E 135°14'1 1.4
2017-Sep-20 12:30N 34°40' E 135°15'1 2.4
2017-Sep-20 12:00N 34°40' E 135°13'0 0.0
2017-Sep-20 11:30N 34°40' E 135°13'0 0.0
2017-Sep-20 11:00N 34°40' E 135°13'0 0.0
2017-Sep-20 10:30N 34°40' E 135°13'0 0.0
2017-Sep-20 10:00N 34°40' E 135°13'3 6.8
2017-Sep-20 09:30N 34°41' E 135°17'1 2.5
2017-Sep-20 09:00N 34°40' E 135°18'2 3.5
2017-Sep-20 08:30N 34°41' E 135°17'0 0.0
2017-Sep-20 08:00N 34°41' E 135°17'0 0.0
2017-Sep-20 07:30N 34°41' E 135°17'0 0.0
2017-Sep-20 07:00N 34°41' E 135°17'2 4.7
2017-Sep-20 06:30N 34°40' E 135°14'2 4.3
2017-Sep-20 06:00N 34°38' E 135°16'1 2.0
2017-Sep-20 05:30N 34°39' E 135°15'3 0.5
2017-Sep-19 23:45N 34°41' E 135°12'1 5.7
2017-Sep-19 23:30N 34°41' E 135°14'2 3.0
2017-Sep-19 23:00N 34°39' E 135°15'1 3.0
2017-Sep-19 22:30N 34°39' E 135°16'0 0.6
2017-Sep-19 22:00N 34°39' E 135°16'3 6.3
2017-Sep-19 21:30N 34°41' E 135°13'1 0.1
2017-Sep-19 08:33N 34°41' E 135°12'0 0.9
2017-Sep-19 08:30N 34°41' E 135°12'2 4.6
2017-Sep-19 08:00N 34°39' E 135°15'0 0.2
2017-Sep-19 07:30N 34°40' E 135°15'1 2.1
2017-Sep-19 07:00N 34°40' E 135°14'0 0.7
2017-Sep-19 06:30N 34°40' E 135°13'0 0.0
2017-Sep-19 06:00N 34°40' E 135°13'0 0.0
2017-Sep-19 05:29N 34°40' E 135°13'0 0.0
2017-Sep-19 05:00N 34°40' E 135°13'0 0.0
2017-Sep-19 04:30N 34°40' E 135°13'0 0.0
2017-Sep-19 04:00N 34°40' E 135°13'0 0.0
2017-Sep-19 03:30N 34°40' E 135°13'1 2.8
2017-Sep-19 03:00N 34°39' E 135°15'0 0.6
2017-Sep-19 02:30N 34°39' E 135°15'0 0.0
2017-Sep-19 02:00N 34°39' E 135°15'0 0.0
2017-Sep-19 01:30N 34°39' E 135°15'3 5.2
2017-Sep-19 01:00N 34°42' E 135°14'0 0.6
2017-Sep-19 00:30N 34°42' E 135°15'2 0.1
2017-Sep-18 04:40N 34°41' E 135°12'0 3.1
2017-Sep-18 04:30N 34°41' E 135°13'611.2
2017-Sep-18 04:00N 34°37' E 135°18'712.6
2017-Sep-18 03:29N 34°32' E 135°23'1 2.3
2017-Sep-18 02:58N 34°31' E 135°23'2 3.3
2017-Sep-18 02:27N 34°32' E 135°22'0 0.4
2017-Sep-18 02:00N 34°33' E 135°22'2 1.7
2017-Sep-18 00:37N 34°33' E 135°25'0 3.7
2017-Sep-18 00:29N 34°33' E 135°25'2 4.0
2017-Sep-18 00:00N 34°34' E 135°22'2 3.5
2017-Sep-17 23:30N 34°34' E 135°20'3 5.1
2017-Sep-17 23:00N 34°36' E 135°18'612.0
2017-Sep-17 22:30N 34°41' E 135°14'2 3.5
2017-Sep-17 22:00N 34°41' E 135°12'0 0.0
2017-Sep-17 21:30N 34°41' E 135°12'0 0.0
2017-Sep-17 21:00N 34°41' E 135°12'0 0.0
2017-Sep-17 20:29N 34°41' E 135°12'0 0.0
2017-Sep-17 20:00N 34°41' E 135°12'0 0.0
2017-Sep-17 19:30N 34°41' E 135°12'0 0.0
2017-Sep-17 19:00N 34°41' E 135°12'0 0.0
2017-Sep-17 18:30N 34°41' E 135°12'0 0.0
2017-Sep-17 18:00N 34°41' E 135°12'0 0.0
2017-Sep-17 17:30N 34°41' E 135°12'0 0.0
2017-Sep-17 17:00N 34°41' E 135°12'0 0.0
2017-Sep-17 16:30N 34°41' E 135°12'0 0.0
2017-Sep-17 16:00N 34°41' E 135°12'0 0.0
2017-Sep-17 15:30N 34°41' E 135°12'0 0.0
2017-Sep-17 15:00N 34°41' E 135°12'0 0.0
2017-Sep-17 14:30N 34°41' E 135°12'0 0.0
2017-Sep-17 14:00N 34°41' E 135°12'0 0.0
2017-Sep-17 13:30N 34°41' E 135°12'0 0.0
2017-Sep-17 13:00N 34°41' E 135°12'0 0.0
2017-Sep-17 12:30N 34°41' E 135°12'0 0.0
2017-Sep-17 12:00N 34°41' E 135°12'0 0.0
2017-Sep-17 11:30N 34°41' E 135°12'0 0.0
2017-Sep-17 11:00N 34°41' E 135°12'0 0.0
2017-Sep-17 10:30N 34°41' E 135°12'0 0.0
2017-Sep-17 10:00N 34°41' E 135°12'0 0.0
2017-Sep-17 09:30N 34°41' E 135°12'0 0.0
2017-Sep-17 09:00N 34°41' E 135°12'0 0.0
2017-Sep-17 08:30N 34°41' E 135°12'0 0.0
2017-Sep-17 08:00N 34°41' E 135°12'0 0.0
2017-Sep-17 07:30N 34°41' E 135°12'0 0.0
2017-Sep-17 07:00N 34°41' E 135°12'0 0.0
2017-Sep-17 06:30N 34°41' E 135°12'0 0.0
2017-Sep-17 06:00N 34°41' E 135°12'0 0.0
2017-Sep-17 05:30N 34°41' E 135°12'0 0.0
2017-Sep-17 05:00N 34°41' E 135°12'0 0.0
2017-Sep-17 04:30N 34°41' E 135°12'0 0.0
2017-Sep-17 04:00N 34°41' E 135°12'0 0.0
2017-Sep-17 03:30N 34°41' E 135°12'0 0.0
2017-Sep-17 03:00N 34°41' E 135°12'0 0.0
2017-Sep-17 02:30N 34°41' E 135°12'0 0.0
2017-Sep-17 02:00N 34°41' E 135°12'0 0.0
2017-Sep-17 01:30N 34°41' E 135°12'0 0.0
2017-Sep-17 01:00N 34°41' E 135°12'0 0.0
2017-Sep-17 00:30N 34°41' E 135°12'0 0.0
2017-Sep-17 00:00N 34°41' E 135°12'1 0.0
2017-Sep-16 07:47N 34°41' E 135°12'2 5.9
2017-Sep-16 07:30N 34°41' E 135°14'2 4.7
2017-Sep-16 07:00N 34°42' E 135°17'0 0.3
2017-Sep-16 06:30N 34°42' E 135°17'0 0.2
2017-Sep-16 06:00N 34°42' E 135°17'0 0.9
2017-Sep-16 05:30N 34°42' E 135°17'4 7.2
2017-Sep-16 05:00N 34°41' E 135°13'0 0.0
2017-Sep-16 04:30N 34°41' E 135°13'0 0.0
2017-Sep-16 04:00N 34°41' E 135°13'0 0.0
2017-Sep-16 03:30N 34°41' E 135°13'0 0.0
2017-Sep-16 03:00N 34°41' E 135°13'0 0.0
2017-Sep-16 02:30N 34°41' E 135°13'1 1.7
2017-Sep-16 02:00N 34°41' E 135°14'0 0.2
2017-Sep-16 01:30N 34°42' E 135°14'0 0.0
2017-Sep-16 01:00N 34°42' E 135°14'0 0.0
2017-Sep-16 00:30N 34°42' E 135°14'0 0.0
2017-Sep-16 00:00N 34°42' E 135°14'2 4.3
2017-Sep-15 23:30N 34°42' E 135°16'1 1.6
2017-Sep-15 23:00N 34°41' E 135°17'1 1.2
2017-Sep-15 22:30N 34°41' E 135°18'1 2.0
2017-Sep-15 22:00N 34°40' E 135°18'3 5.7
2017-Sep-15 21:30N 34°41' E 135°14'2 0.1
2017-Sep-15 05:34N 34°41' E 135°12'0 2.0
2017-Sep-15 05:30N 34°40' E 135°12'1 0.2
2017-Sep-14 23:47N 34°40' E 135°11'1 4.2
2017-Sep-14 23:30N 34°41' E 135°12'0 0.0
2017-Sep-14 05:26N 34°41' E 135°12'3 7.6
2017-Sep-14 05:00N 34°38' E 135°15'712.4
2017-Sep-14 04:28N 34°35' E 135°22'3 2.6
2017-Sep-14 03:19N 34°33' E 135°25'0 1.0
2017-Sep-14 02:57N 34°33' E 135°25'3 5.9
2017-Sep-14 02:30N 34°33' E 135°21'1 1.3
2017-Sep-14 01:59N 34°34' E 135°21'3 5.7
2017-Sep-14 01:30N 34°36' E 135°24'0 0.0
2017-Sep-14 00:58N 34°36' E 135°24'2 5.3
2017-Sep-14 00:30N 34°38' E 135°24'1 2.1
2017-Sep-14 00:00N 34°39' E 135°25'2 4.2
2017-Sep-13 23:30N 34°38' E 135°23'1 1.3
2017-Sep-13 23:00N 34°38' E 135°22'2 4.1
2017-Sep-13 22:30N 34°39' E 135°20'611.2
2017-Sep-13 22:00N 34°41' E 135°14'1 0.1
2017-Sep-13 09:00N 34°41' E 135°12'4 8.5
2017-Sep-13 08:30N 34°41' E 135°17'5 9.5
2017-Sep-13 08:00N 34°38' E 135°22'4 7.3
2017-Sep-13 07:30N 34°38' E 135°27'0 0.4
2017-Sep-13 06:58N 34°38' E 135°26'0 1.0
2017-Sep-13 06:29N 34°38' E 135°27'0 0.0
2017-Sep-13 05:58N 34°38' E 135°27'0 0.0
2017-Sep-13 05:29N 34°38' E 135°27'0 0.0
2017-Sep-13 05:00N 34°38' E 135°27'0 0.0
2017-Sep-13 04:23N 34°38' E 135°27'0 0.0
2017-Sep-13 03:58N 34°38' E 135°27'0 0.0
2017-Sep-13 03:27N 34°38' E 135°27'4 7.9
2017-Sep-13 03:00N 34°37' E 135°23'4 7.8
2017-Sep-13 02:29N 34°33' E 135°26'0 0.0
2017-Sep-13 01:59N 34°33' E 135°26'0 0.0
2017-Sep-13 01:30N 34°33' E 135°26'0 0.3
2017-Sep-13 01:00N 34°33' E 135°26'2 3.3
2017-Sep-13 00:27N 34°33' E 135°23'3 6.2
2017-Sep-13 00:00N 34°34' E 135°20'1 1.0
2017-Sep-12 23:31N 34°34' E 135°20'510.1
2017-Sep-12 23:00N 34°38' E 135°16'4 7.9
2017-Sep-12 22:31N 34°41' E 135°12'  
Track history (hours):
 
Tides and Currents Weather Stations Pressure Air Temp Water Temp Dewpoint Dewpoint Depression Visibility Wind Speed Wind Dir Waves Ship Positions

Rokkomaru

Last reported at 2017-Sep-22 01:56 UTC. Time now 2017-Sep-22 04:32 UTC.
Position N 34°33' E 135°26'.

Length 33 m; draft 4.3 m.

Type: Tug. MMSI: 431005792.

Date/timePositionNaut miles runAvg speedWind from/ knotsBaromVisibWave heightAir tempDewpointWater temp
2017-Sep-22 01:56N 34°33' E 135°26'1 1.9
2017-Sep-22 01:30N 34°33' E 135°25'4 7.2
2017-Sep-22 01:00N 34°34' E 135°20'0 0.5
2017-Sep-22 00:29N 34°34' E 135°20'511.0
2017-Sep-22 00:00N 34°38' E 135°16'4 8.4
2017-Sep-21 23:30N 34°41' E 135°12'0 0.0
2017-Sep-20 23:46N 34°41' E 135°12'1 4.9
2017-Sep-20 23:30N 34°41' E 135°14'2 3.1
2017-Sep-20 23:00N 34°41' E 135°16'1 2.0
2017-Sep-20 22:30N 34°40' E 135°15'1 2.6
2017-Sep-20 22:00N 34°39' E 135°16'2 4.2
2017-Sep-20 21:30N 34°40' E 135°14'0 0.0
2017-Sep-20 21:00N 34°40' E 135°14'0 0.0
2017-Sep-20 20:30N 34°40' E 135°14'0 0.0
2017-Sep-20 20:00N 34°40' E 135°14'0 0.0
2017-Sep-20 19:30N 34°40' E 135°14'0 0.0
2017-Sep-20 19:00N 34°40' E 135°14'0 0.0
2017-Sep-20 18:30N 34°40' E 135°14'0 0.0
2017-Sep-20 18:00N 34°40' E 135°14'0 0.0
2017-Sep-20 17:30N 34°40' E 135°14'0 0.0
2017-Sep-20 17:00N 34°40' E 135°14'1 1.2
2017-Sep-20 16:30N 34°40' E 135°14'0 0.6
2017-Sep-20 16:00N 34°40' E 135°14'0 0.7
2017-Sep-20 15:30N 34°40' E 135°14'0 0.0
2017-Sep-20 15:00N 34°40' E 135°14'0 0.0
2017-Sep-20 14:00N 34°40' E 135°14'0 0.8
2017-Sep-20 13:30N 34°40' E 135°14'0 0.1
2017-Sep-20 13:00N 34°40' E 135°14'1 1.4
2017-Sep-20 12:30N 34°40' E 135°15'1 2.4
2017-Sep-20 12:00N 34°40' E 135°13'0 0.0
2017-Sep-20 11:30N 34°40' E 135°13'0 0.0
2017-Sep-20 11:00N 34°40' E 135°13'0 0.0
2017-Sep-20 10:30N 34°40' E 135°13'0 0.0
2017-Sep-20 10:00N 34°40' E 135°13'3 6.8
2017-Sep-20 09:30N 34°41' E 135°17'1 2.5
2017-Sep-20 09:00N 34°40' E 135°18'2 3.5
2017-Sep-20 08:30N 34°41' E 135°17'0 0.0
2017-Sep-20 08:00N 34°41' E 135°17'0 0.0
2017-Sep-20 07:30N 34°41' E 135°17'0 0.0
2017-Sep-20 07:00N 34°41' E 135°17'2 4.7
2017-Sep-20 06:30N 34°40' E 135°14'2 4.3
2017-Sep-20 06:00N 34°38' E 135°16'1 2.0
2017-Sep-20 05:30N 34°39' E 135°15'3 0.5
2017-Sep-19 23:45N 34°41' E 135°12'1 5.7
2017-Sep-19 23:30N 34°41' E 135°14'2 3.0
2017-Sep-19 23:00N 34°39' E 135°15'1 3.0
2017-Sep-19 22:30N 34°39' E 135°16'0 0.6
2017-Sep-19 22:00N 34°39' E 135°16'3 6.3
2017-Sep-19 21:30N 34°41' E 135°13'1 0.1
2017-Sep-19 08:33N 34°41' E 135°12'0 0.9
2017-Sep-19 08:30N 34°41' E 135°12'2 4.6
2017-Sep-19 08:00N 34°39' E 135°15'0 0.2
2017-Sep-19 07:30N 34°40' E 135°15'1 2.1
2017-Sep-19 07:00N 34°40' E 135°14'0 0.7
2017-Sep-19 06:30N 34°40' E 135°13'0 0.0
2017-Sep-19 06:00N 34°40' E 135°13'0 0.0
2017-Sep-19 05:29N 34°40' E 135°13'0 0.0
2017-Sep-19 05:00N 34°40' E 135°13'0 0.0
2017-Sep-19 04:30N 34°40' E 135°13'0 0.0
2017-Sep-19 04:00N 34°40' E 135°13'0 0.0
2017-Sep-19 03:30N 34°40' E 135°13'1 2.8
2017-Sep-19 03:00N 34°39' E 135°15'0 0.6
2017-Sep-19 02:30N 34°39' E 135°15'0 0.0
2017-Sep-19 02:00N 34°39' E 135°15'0 0.0
2017-Sep-19 01:30N 34°39' E 135°15'3 5.2
2017-Sep-19 01:00N 34°42' E 135°14'0 0.6
2017-Sep-19 00:30N 34°42' E 135°15'2 0.1
2017-Sep-18 04:40N 34°41' E 135°12'0 3.1
2017-Sep-18 04:30N 34°41' E 135°13'611.2
2017-Sep-18 04:00N 34°37' E 135°18'712.6
2017-Sep-18 03:29N 34°32' E 135°23'1 2.3
2017-Sep-18 02:58N 34°31' E 135°23'2 3.3
2017-Sep-18 02:27N 34°32' E 135°22'0 0.4
2017-Sep-18 02:00N 34°33' E 135°22'2 1.7
2017-Sep-18 00:37N 34°33' E 135°25'0 3.7
2017-Sep-18 00:29N 34°33' E 135°25'2 4.0
2017-Sep-18 00:00N 34°34' E 135°22'2 3.5
2017-Sep-17 23:30N 34°34' E 135°20'3 5.1
2017-Sep-17 23:00N 34°36' E 135°18'612.0
2017-Sep-17 22:30N 34°41' E 135°14'2 3.5
2017-Sep-17 22:00N 34°41' E 135°12'0 0.0
2017-Sep-17 21:30N 34°41' E 135°12'0 0.0
2017-Sep-17 21:00N 34°41' E 135°12'0 0.0
2017-Sep-17 20:29N 34°41' E 135°12'0 0.0
2017-Sep-17 20:00N 34°41' E 135°12'0 0.0
2017-Sep-17 19:30N 34°41' E 135°12'0 0.0
2017-Sep-17 19:00N 34°41' E 135°12'0 0.0
2017-Sep-17 18:30N 34°41' E 135°12'0 0.0
2017-Sep-17 18:00N 34°41' E 135°12'0 0.0
2017-Sep-17 17:30N 34°41' E 135°12'0 0.0
2017-Sep-17 17:00N 34°41' E 135°12'0 0.0
2017-Sep-17 16:30N 34°41' E 135°12'0 0.0
2017-Sep-17 16:00N 34°41' E 135°12'0 0.0
2017-Sep-17 15:30N 34°41' E 135°12'0 0.0
2017-Sep-17 15:00N 34°41' E 135°12'0 0.0
2017-Sep-17 14:30N 34°41' E 135°12'0 0.0
2017-Sep-17 14:00N 34°41' E 135°12'0 0.0
2017-Sep-17 13:30N 34°41' E 135°12'0 0.0
2017-Sep-17 13:00N 34°41' E 135°12'0 0.0
2017-Sep-17 12:30N 34°41' E 135°12'0 0.0
2017-Sep-17 12:00N 34°41' E 135°12'0 0.0
2017-Sep-17 11:30N 34°41' E 135°12'0 0.0
2017-Sep-17 11:00N 34°41' E 135°12'0 0.0
2017-Sep-17 10:30N 34°41' E 135°12'0 0.0
2017-Sep-17 10:00N 34°41' E 135°12'0 0.0
2017-Sep-17 09:30N 34°41' E 135°12'0 0.0
2017-Sep-17 09:00N 34°41' E 135°12'0 0.0
2017-Sep-17 08:30N 34°41' E 135°12'0 0.0
2017-Sep-17 08:00N 34°41' E 135°12'0 0.0
2017-Sep-17 07:30N 34°41' E 135°12'0 0.0
2017-Sep-17 07:00N 34°41' E 135°12'0 0.0
2017-Sep-17 06:30N 34°41' E 135°12'0 0.0
2017-Sep-17 06:00N 34°41' E 135°12'0 0.0
2017-Sep-17 05:30N 34°41' E 135°12'0 0.0
2017-Sep-17 05:00N 34°41' E 135°12'0 0.0
2017-Sep-17 04:30N 34°41' E 135°12'0 0.0
2017-Sep-17 04:00N 34°41' E 135°12'0 0.0
2017-Sep-17 03:30N 34°41' E 135°12'0 0.0
2017-Sep-17 03:00N 34°41' E 135°12'0 0.0
2017-Sep-17 02:30N 34°41' E 135°12'0 0.0
2017-Sep-17 02:00N 34°41' E 135°12'0 0.0
2017-Sep-17 01:30N 34°41' E 135°12'0 0.0
2017-Sep-17 01:00N 34°41' E 135°12'0 0.0
2017-Sep-17 00:30N 34°41' E 135°12'0 0.0
2017-Sep-17 00:00N 34°41' E 135°12'1 0.0
2017-Sep-16 07:47N 34°41' E 135°12'2 5.9
2017-Sep-16 07:30N 34°41' E 135°14'2 4.7
2017-Sep-16 07:00N 34°42' E 135°17'0 0.3
2017-Sep-16 06:30N 34°42' E 135°17'0 0.2
2017-Sep-16 06:00N 34°42' E 135°17'0 0.9
2017-Sep-16 05:30N 34°42' E 135°17'4 7.2
2017-Sep-16 05:00N 34°41' E 135°13'0 0.0
2017-Sep-16 04:30N 34°41' E 135°13'0 0.0
2017-Sep-16 04:00N 34°41' E 135°13'0 0.0
2017-Sep-16 03:30N 34°41' E 135°13'0 0.0
2017-Sep-16 03:00N 34°41' E 135°13'0 0.0
2017-Sep-16 02:30N 34°41' E 135°13'1 1.7
2017-Sep-16 02:00N 34°41' E 135°14'0 0.2
2017-Sep-16 01:30N 34°42' E 135°14'0 0.0
2017-Sep-16 01:00N 34°42' E 135°14'0 0.0
2017-Sep-16 00:30N 34°42' E 135°14'0 0.0
2017-Sep-16 00:00N 34°42' E 135°14'2 4.3
2017-Sep-15 23:30N 34°42' E 135°16'1 1.6
2017-Sep-15 23:00N 34°41' E 135°17'1 1.2
2017-Sep-15 22:30N 34°41' E 135°18'1 2.0
2017-Sep-15 22:00N 34°40' E 135°18'3 5.7
2017-Sep-15 21:30N 34°41' E 135°14'2 0.1
2017-Sep-15 05:34N 34°41' E 135°12'0 2.0
2017-Sep-15 05:30N 34°40' E 135°12'1 0.2
2017-Sep-14 23:47N 34°40' E 135°11'1 4.2
2017-Sep-14 23:30N 34°41' E 135°12'0 0.0
2017-Sep-14 05:26N 34°41' E 135°12'3 7.6
2017-Sep-14 05:00N 34°38' E 135°15'712.4
2017-Sep-14 04:28N 34°35' E 135°22'3 2.6
2017-Sep-14 03:19N 34°33' E 135°25'0 1.0
2017-Sep-14 02:57N 34°33' E 135°25'3 5.9
2017-Sep-14 02:30N 34°33' E 135°21'1 1.3
2017-Sep-14 01:59N 34°34' E 135°21'3 5.7
2017-Sep-14 01:30N 34°36' E 135°24'0 0.0
2017-Sep-14 00:58N 34°36' E 135°24'2 5.3
2017-Sep-14 00:30N 34°38' E 135°24'1 2.1
2017-Sep-14 00:00N 34°39' E 135°25'2 4.2
2017-Sep-13 23:30N 34°38' E 135°23'1 1.3
2017-Sep-13 23:00N 34°38' E 135°22'2 4.1
2017-Sep-13 22:30N 34°39' E 135°20'611.2
2017-Sep-13 22:00N 34°41' E 135°14'1 0.1
2017-Sep-13 09:00N 34°41' E 135°12'4 8.5
2017-Sep-13 08:30N 34°41' E 135°17'5 9.5
2017-Sep-13 08:00N 34°38' E 135°22'4 7.3
2017-Sep-13 07:30N 34°38' E 135°27'0 0.4
2017-Sep-13 06:58N 34°38' E 135°26'0 1.0
2017-Sep-13 06:29N 34°38' E 135°27'0 0.0
2017-Sep-13 05:58N 34°38' E 135°27'0 0.0
2017-Sep-13 05:29N 34°38' E 135°27'0 0.0
2017-Sep-13 05:00N 34°38' E 135°27'0 0.0
2017-Sep-13 04:23N 34°38' E 135°27'0 0.0
2017-Sep-13 03:58N 34°38' E 135°27'0 0.0
2017-Sep-13 03:27N 34°38' E 135°27'4 7.9
2017-Sep-13 03:00N 34°37' E 135°23'4 7.8
2017-Sep-13 02:29N 34°33' E 135°26'0 0.0
2017-Sep-13 01:59N 34°33' E 135°26'0 0.0
2017-Sep-13 01:30N 34°33' E 135°26'0 0.3
2017-Sep-13 01:00N 34°33' E 135°26'2 3.3
2017-Sep-13 00:27N 34°33' E 135°23'3 6.2
2017-Sep-13 00:00N 34°34' E 135°20'1 1.0
2017-Sep-12 23:31N 34°34' E 135°20'510.1
2017-Sep-12 23:00N 34°38' E 135°16'4 7.9
2017-Sep-12 22:31N 34°41' E 135°12'  

Dump ship's entire track history